Flight Track Log - Related Links

Times and Time Zones

All times are in EDT time to prevent confusion due to time zone crossing. See the N55620 flight status page for this flight to view local times or setup timezone preferences in your user account.

Time Position Orientation Groundspeed Altitude Reporting Facility
EDT Latitude Longitude Course Direction KTS MPH feet Rate Location/Type
Wed 06:59:00 PM 40.2671 -83.1813 255° West  Level FlightAware Approximate
Wed 07:00:00 PM 40.2563 -83.2354 255° West  Level FlightAware Approximate
Wed 07:01:00 PM 40.2431 -83.3017 255° West  Level FlightAware Approximate
Wed 07:02:00 PM 40.2299 -83.3679 255° West  Level FlightAware Approximate
Wed 07:03:00 PM 40.2166 -83.4342 255° West  Level FlightAware Approximate
Wed 07:04:00 PM 40.2298 -83.3684 255° West  Level FlightAware Approximate
Wed 07:05:00 PM 40.2181 -83.4347 255° West  Level Estimated
Wed 07:06:00 PM 40.2037 -83.5000 255° West  Level FlightAware Approximate
Wed 07:07:00 PM 40.1892 -83.5653 255° West  Level FlightAware Approximate
Wed 07:08:00 PM 40.2037 -83.5000 255° West  Level FlightAware Approximate
Wed 07:09:00 PM 40.1892 -83.5653 255° West  Level FlightAware Approximate
Wed 07:10:00 PM 40.2026 -83.5000 255° West  Level FlightAware Approximate
Wed 07:11:00 PM 40.1909 -83.5658 255° West  Level Estimated
Wed 07:12:00 PM 40.2030 -83.5001 255° West  Level FlightAware Approximate
Wed 07:13:00 PM 40.1909 -83.5658 255° West  Level FlightAware Approximate
Wed 07:14:00 PM 40.2030 -83.5001 255° West  Level FlightAware Approximate
Wed 07:15:00 PM 40.1909 -83.5658 255° West  Level FlightAware Approximate
Wed 07:16:00 PM 40.2038 -83.5011 255° West  Level FlightAware Approximate
Wed 07:17:00 PM 40.1923 -83.5663 255° West  Level Estimated
Wed 07:18:00 PM 40.2025 -83.5007 255° West  Level FlightAware Approximate
Wed 07:19:00 PM 40.1923 -83.5663 255° West  Level FlightAware Approximate
Wed 07:20:00 PM 40.2025 -83.5007 255° West  Level FlightAware Approximate
Wed 07:21:00 PM 40.2155 -83.4366 255° West  Level FlightAware Approximate
Wed 07:22:00 PM 40.2041 -83.5013 255° West  Level Estimated
Wed 07:23:00 PM 40.1874 -83.5639 255° West  Level FlightAware Approximate
Wed 07:24:00 PM 40.2041 -83.5013 255° West  Level FlightAware Approximate
Wed 07:25:00 PM 40.1874 -83.5639 255° West  Level FlightAware Approximate
Wed 07:26:00 PM 40.2041 -83.5013 255° West  Level FlightAware Approximate
Wed 07:27:00 PM 40.1935 -83.5527 255° West  Level FlightAware Approximate
Wed 07:28:00 PM 40.1818 -83.6173 255° West  Level FlightAware Approximate
Wed 07:29:00 PM 40.1701 -83.6819 255° West  Level FlightAware Approximate
Wed 07:30:00 PM 40.1584 -83.7464 255° West  Level FlightAware Approximate
Wed 07:31:00 PM 40.1672 -83.7012 255° West  Level FlightAware Approximate
Wed 07:32:00 PM 40.1591 -83.7467 255° West  Level Estimated
Wed 07:33:00 PM 40.1672 -83.7012 255° West  Level FlightAware Approximate
Wed 07:34:00 PM 40.1753 -83.6558 255° West  Level FlightAware Approximate
Wed 07:35:00 PM 40.1834 -83.6104 255° West  Level FlightAware Approximate
Wed 07:36:00 PM 40.1914 -83.5649 255° West  Level FlightAware Approximate
Wed 07:37:00 PM 40.1995 -83.5195 255° West  Level FlightAware Approximate
Wed 07:38:00 PM 40.2076 -83.4740 255° West  Level FlightAware Approximate
Wed 07:39:00 PM 40.1995 -83.5195 255° West  Level FlightAware Approximate
Wed 07:40:00 PM 40.1932 -83.5546 255° West  Level FlightAware Approximate
Wed 07:41:00 PM 40.1850 -83.6000 255° West  Level FlightAware Approximate
Wed 07:42:00 PM 40.1767 -83.6454 255° West  Level FlightAware Approximate
Wed 07:43:00 PM 40.1685 -83.6908 255° West  Level FlightAware Approximate
Wed 07:44:00 PM 40.1603 -83.7362 255° West  Level FlightAware Approximate
Wed 07:45:00 PM 40.1520 -83.7816 255° West  Level FlightAware Approximate
Wed 07:46:00 PM 40.1437 -83.8269 255° West  Level FlightAware Approximate
Wed 07:46:52 PM 39.2725 -87.6250 253° West 134 154 4,400  Level Kansas City Center
Wed 07:47:00 PM 40.1354 -83.8723 255° West  Level FlightAware Approximate
Wed 07:47:52 PM 39.2658 -87.6525 265° West 85 98 4,400  Level Kansas City Center
Wed 07:48:00 PM 40.1270 -83.9176 255° West  Level FlightAware Approximate
Wed 07:48:52 PM 39.2636 -87.6850 269° West 85 98 4,400  Level Kansas City Center
Wed 07:49:00 PM 40.1187 -83.9629 255° West  Level FlightAware Approximate
Wed 07:49:52 PM 39.2631 -87.7144 257° West 85 98 4,400  Level Kansas City Center
Wed 07:50:00 PM 40.1104 -84.0082 255° West  Level FlightAware Approximate
Wed 07:50:52 PM 39.2583 -87.7417 254° West 85 98 4,500  Level Kansas City Center
Wed 07:51:00 PM 40.1020 -84.0535 255° West  Level FlightAware Approximate
Wed 07:51:52 PM 39.2517 -87.7719 263° West 85 98 4,500  Level Kansas City Center
Wed 07:52:52 PM 39.2492 -87.7989 249° West 85 98 4,500 -50 Level Kansas City Center
Wed 07:53:52 PM 39.2403 -87.8292 264° West 90 104 4,400 -50 Descending Kansas City Center
Wed 07:54:52 PM 39.2378 -87.8589 290° West 90 104 4,400  Level Kansas City Center
Wed 07:55:52 PM 39.2458 -87.8878 282° West 90 104 4,400  Level Kansas City Center
Wed 07:56:52 PM 39.2519 -87.9247 283° West 90 104 4,400  Level Kansas City Center
Wed 07:57:52 PM 39.2581 -87.9589 291° West 90 104 4,400 50 Level Kansas City Center
Wed 07:58:52 PM 39.2658 -87.9850 283° West 90 104 4,500  Climbing Kansas City Center
Wed 07:59:52 PM 39.2717 -88.0167 283° West 90 104 4,400 -50 Descending Kansas City Center
Wed 08:00:52 PM 39.2775 -88.0483 274° West 90 104 4,400 50 Level Kansas City Center
Wed 08:01:52 PM 39.2792 -88.0778 278° West 90 104 4,500 50 Climbing Kansas City Center
Wed 08:02:52 PM 39.2828 -88.1097 269° West 90 104 4,500  Level Kansas City Center
Wed 08:03:52 PM 39.2825 -88.1419 274° West 85 98 4,500 -50 Level Kansas City Center
Wed 08:04:52 PM 39.2839 -88.1686 269° West 85 98 4,400 -50 Descending Kansas City Center
Wed 08:05:52 PM 39.2836 -88.2008 268° West 85 98 4,400 50 Level Kansas City Center
Wed 08:06:52 PM 39.2828 -88.2275 260° West 85 98 4,500  Climbing Kansas City Center
Wed 08:07:52 PM 39.2783 -88.2603 268° West 85 98 4,400 -50 Descending Kansas City Center
Wed 08:08:52 PM 39.2778 -88.2872 253° West 85 98 4,400  Level Kansas City Center
Wed 08:09:52 PM 39.2708 -88.3172 254° West 85 98 4,400  Level Kansas City Center
Wed 08:10:52 PM 39.2642 -88.3472 253° West 85 98 4,400  Level Kansas City Center
Wed 08:11:52 PM 39.2589 -88.3692 225° Southwest 85 98 4,400  Level Kansas City Center
Wed 08:12:52 PM 39.2433 -88.3892 213° Southwest 85 98 4,400  Level Kansas City Center
Wed 08:13:52 PM 39.2292 -88.4011 225° Southwest 75 86 4,400  Level Kansas City Center
Wed 08:14:52 PM 39.2136 -88.4211 274° West 75 86 4,400  Level Kansas City Center
Wed 08:15:52 PM 39.2153 -88.4533 279° West 75 86 4,400  Level Kansas City Center
Wed 08:16:52 PM 39.2186 -88.4797 283° West 75 86 4,400  Level Kansas City Center
Wed 08:17:52 PM 39.2244 -88.5114 279° West 86 99 4,400  Level Kansas City Center
Wed 08:18:52 PM 39.2281 -88.5406 278° West 86 99 4,400  Level Kansas City Center
Wed 08:19:52 PM 39.2319 -88.5753 241° Southwest 86 99 4,400  Level Kansas City Center
Wed 08:20:52 PM 39.2225 -88.5975 242° Southwest 81 93 4,400  Level Kansas City Center
Wed 08:21:52 PM 39.2114 -88.6250 240° Southwest 81 93 4,400  Level Kansas City Center
Wed 08:22:52 PM 39.2039 -88.6419 242° Southwest 81 93 4,400  Level Kansas City Center
Wed 08:23:52 PM 39.1928 -88.6694 246° West 81 93 4,400  Level Kansas City Center
Wed 08:24:52 PM 39.1853 -88.6917 244° Southwest 81 93 4,400  Level Kansas City Center
Wed 08:25:52 PM 39.1781 -88.7108 241° Southwest 81 93 4,400 -950 Level Kansas City Center
Wed 08:26:52 PM 39.1686 -88.7331 238° Southwest 81 93 2,500 -950 Descending Kansas City Center
Wed 08:27:52 PM 39.1592 -88.7525 241° Southwest 81 93 2,500  Level Kansas City Center
Wed 08:28:52 PM 39.1497 -88.7747 237° Southwest 81 93 2,500  Level Kansas City Center
Wed 08:29:52 PM 39.1442 -88.7858 360° North 81 93 2,500  Level Kansas City Center
Wed 08:31:52 PM 39.1442 -88.7858 360° North 81 93 2,500  Level Kansas City Center
Wed 08:33:52 PM 39.1442 -88.7858 246° West 81 93 2,500  Level Kansas City Center
Wed 08:34:52 PM 39.0392 -89.0856 37° Northeast 81 93 2,500 667 Level Kansas City Center
Wed 08:36:52 PM 39.1331 -88.9956 261° West 131 151 4,500 667 Climbing Kansas City Center
Wed 08:37:52 PM 39.1300 -89.0197 258° West 92 106 4,500 -50 Level Kansas City Center
Wed 08:38:52 PM 39.1250 -89.0497 261° West 92 106 4,400 -50 Descending Kansas City Center
Wed 08:39:52 PM 39.1219 -89.0739 245° Southwest 79 91 4,400  Level Kansas City Center
Wed 08:40:52 PM 39.1128 -89.0989 254° West 73 84 4,400  Level Kansas City Center
Wed 08:41:52 PM 39.1075 -89.1233 247° West 73 84 4,400  Level Kansas City Center
Wed 08:42:52 PM 39.0983 -89.1506 217° Southwest 73 84 4,400 -50 Level Kansas City Center
Wed 08:43:52 PM 39.0864 -89.1622 240° Southwest 73 84 4,300  Descending Kansas City Center
Wed 08:44:52 PM 39.0750 -89.1872 96° East 73 84 4,400  Climbing Kansas City Center
Wed 08:45:29 PM 39.0714 -89.1442 265° West 74 85 4,300 -103 Descending FAA TRACON SMA TRACON (SMA)
Wed 08:45:50 PM 39.0708 -89.1522 234° Southwest 72 83 4,300  Level FAA TRACON SMA TRACON (SMA)
Wed 08:46:10 PM 39.0672 -89.1586 262° West 69 79 4,300  Level FAA TRACON SMA TRACON (SMA)
Wed 08:46:29 PM 39.0661 -89.1689 263° West 74 85 4,300  Level FAA TRACON SMA TRACON (SMA)
Wed 08:46:50 PM 39.0653 -89.1775 252° West 77 89 4,300  Level FAA TRACON SMA TRACON (SMA)
Wed 08:47:10 PM 39.0633 -89.1850 249° West 73 84 4,300  Level FAA TRACON SMA TRACON (SMA)
Wed 08:47:29 PM 39.0606 -89.1942 265° West 70 81 4,300  Level FAA TRACON SMA TRACON (SMA)
Wed 08:47:50 PM 39.0600 -89.2025 262° West 75 86 4,300  Level FAA TRACON SMA TRACON (SMA)
Wed 08:48:10 PM 39.0592 -89.2106 252° West 75 86 4,300  Level FAA TRACON SMA TRACON (SMA)
Wed 08:48:29 PM 39.0567 -89.2203 250° West 74 85 4,300  Level FAA TRACON SMA TRACON (SMA)
Wed 08:48:49 PM 39.0547 -89.2272 237° Southwest 69 79 4,300  Level FAA TRACON SMA TRACON (SMA)
Wed 08:49:10 PM 39.0514 -89.2339 240° Southwest 70 81 4,300  Level FAA TRACON SMA TRACON (SMA)
Wed 08:49:29 PM 39.0475 -89.2425 250° West 74 85 4,300  Level FAA TRACON SMA TRACON (SMA)
Wed 08:49:49 PM 39.0453 -89.2506 250° West 76 87 4,300  Level FAA TRACON SMA TRACON (SMA)
Wed 08:50:10 PM 39.0431 -89.2583 251° West 76 87 4,300  Level FAA TRACON SMA TRACON (SMA)
Wed 08:50:29 PM 39.0406 -89.2678 250° West 74 85 4,300  Level FAA TRACON SMA TRACON (SMA)
Wed 08:50:49 PM 39.0383 -89.2758 250° West 75 86 4,300  Level FAA TRACON SMA TRACON (SMA)
Wed 08:51:10 PM 39.0361 -89.2839 249° West 78 90 4,300  Level FAA TRACON SMA TRACON (SMA)
Wed 08:51:30 PM 39.0333 -89.2933 216° Southwest 74 85 4,300  Level FAA TRACON SMA TRACON (SMA)
Wed 08:51:49 PM 39.0275 -89.2989 240° Southwest 77 89 4,300  Level FAA TRACON SMA TRACON (SMA)
Wed 08:52:10 PM 39.0244 -89.3058 250° West 77 89 4,300  Level FAA TRACON SMA TRACON (SMA)
Wed 08:52:30 PM 39.0217 -89.3158 251° West 76 87 4,300  Level FAA TRACON SMA TRACON (SMA)
Wed 08:52:49 PM 39.0197 -89.3231 238° Southwest 74 85 4,300  Level FAA TRACON SMA TRACON (SMA)
Wed 08:53:10 PM 39.0164 -89.3300 270° West 71 82 4,300  Level FAA TRACON SMA TRACON (SMA)
Wed 08:53:30 PM 39.0164 -89.3403 253° West 73 84 4,300  Level FAA TRACON SMA TRACON (SMA)
Wed 08:53:49 PM 39.0144 -89.3483 260° West 75 86 4,300  Level FAA TRACON SMA TRACON (SMA)
Wed 08:54:09 PM 39.0133 -89.3564 258° West 74 85 4,300 146 Level FAA TRACON SMA TRACON (SMA)
Wed 08:54:30 PM 39.0117 -89.3667 265° West 75 86 4,400  Climbing FAA TRACON SMA TRACON (SMA)
Wed 08:54:50 PM 39.0111 -89.3747 260° West 76 87 4,300 -154 Descending FAA TRACON SMA TRACON (SMA)
Wed 08:55:09 PM 39.0100 -89.3831 280° West 79 91 4,300  Level FAA TRACON SMA TRACON (SMA)
Wed 08:55:30 PM 39.0117 -89.3947 281° West 83 96 4,300 146 Level FAA TRACON SMA TRACON (SMA)
Wed 08:55:50 PM 39.0131 -89.4036 272° West 85 98 4,400 154 Climbing FAA TRACON SMA TRACON (SMA)
Wed 08:56:09 PM 39.0133 -89.4119 266° West 80 92 4,400  Level FAA TRACON SMA TRACON (SMA)
Wed 08:56:30 PM 39.0128 -89.4222 260° West 75 86 4,400  Level FAA TRACON SMA TRACON (SMA)
Wed 08:56:50 PM 39.0117 -89.4300 250° West 73 84 4,400  Level FAA TRACON SMA TRACON (SMA)
Wed 08:57:09 PM 39.0094 -89.4378 259° West 73 84 4,400  Level FAA TRACON SMA TRACON (SMA)
Wed 08:57:29 PM 39.0081 -89.4472 237° Southwest 72 83 4,400  Level FAA TRACON SMA TRACON (SMA)
Wed 08:57:50 PM 39.0047 -89.4539 251° West 71 82 4,400  Level FAA TRACON SMA TRACON (SMA)
Wed 08:58:10 PM 39.0028 -89.4611 248° West 70 81 4,400 154 Level FAA TRACON SMA TRACON (SMA)
Wed 08:58:29 PM 39.0000 -89.4700 238° Southwest 69 79 4,500 150 Climbing FAA TRACON SMA TRACON (SMA)
Wed 08:58:50 PM 38.9969 -89.4764 248° West 68 78 4,500  Level FAA TRACON SMA TRACON (SMA)
Wed 08:59:10 PM 38.9950 -89.4825 219° Southwest 65 75 4,500  Level FAA TRACON SMA TRACON (SMA)
Wed 08:59:29 PM 38.9886 -89.4892 225° Southwest 69 79 4,500 -150 Level FAA TRACON SMA TRACON (SMA)
Wed 08:59:50 PM 38.9847 -89.4942 220° Southwest 70 81 4,400 -146 Descending FAA TRACON SMA TRACON (SMA)
Wed 09:00:10 PM 38.9803 -89.4989 232° Southwest 69 79 4,400  Level FAA TRACON SMA TRACON (SMA)
Wed 09:00:29 PM 38.9756 -89.5067 231° Southwest 71 82 4,400  Level FAA TRACON SMA TRACON (SMA)
Wed 09:00:54 PM 38.9717 -89.5128 234° Southwest 71 82 4,400  Level FAA TRACON SMA TRACON (SMA)
Wed 09:01:13 PM 38.9675 -89.5203 232° Southwest 69 79 4,400 -167 Level FAA TRACON SMA TRACON (SMA)
Wed 09:01:30 PM 38.9636 -89.5267 219° Southwest 73 84 4,300 -162 Descending FAA TRACON SMA TRACON (SMA)
Wed 09:01:50 PM 38.9589 -89.5317 231° Southwest 70 81 4,300  Level FAA TRACON SMA TRACON (SMA)
Wed 09:02:09 PM 38.9550 -89.5378 221° Southwest 70 81 4,300  Level FAA TRACON SMA TRACON (SMA)
Wed 09:02:30 PM 38.9494 -89.5439 226° Southwest 72 83 4,300  Level FAA TRACON SMA TRACON (SMA)
Wed 09:02:50 PM 38.9458 -89.5486 206° Southwest 67 77 4,300  Level FAA TRACON SMA TRACON (SMA)
Wed 09:03:09 PM 38.9397 -89.5525 225° Southwest 70 81 4,300  Level FAA TRACON SMA TRACON (SMA)
Wed 09:03:30 PM 38.9350 -89.5586 220° Southwest 66 76 4,300  Level FAA TRACON SMA TRACON (SMA)
Wed 09:03:50 PM 38.9308 -89.5631 216° Southwest 64 74 4,300  Level FAA TRACON SMA TRACON (SMA)
Wed 09:04:09 PM 38.9261 -89.5675 218° Southwest 68 78 4,300 150 Level FAA TRACON SMA TRACON (SMA)
Wed 09:04:30 PM 38.9208 -89.5728 207° Southwest 65 75 4,400 136 Climbing FAA TRACON SMA TRACON (SMA)
Wed 09:04:53 PM 38.9158 -89.5761 212° Southwest 64 74 4,400  Level FAA TRACON SMA TRACON (SMA)
Wed 09:05:13 PM 38.9100 -89.5808 204° Southwest 62 71 4,400 162 Level FAA TRACON SMA TRACON (SMA)
Wed 09:05:30 PM 38.9056 -89.5833 192° South 61 70 4,500 167 Climbing FAA TRACON SMA TRACON (SMA)
Wed 09:05:49 PM 38.8994 -89.5850 220° Southwest 64 74 4,500 -150 Level FAA TRACON SMA TRACON (SMA)
Wed 09:06:10 PM 38.8956 -89.5892 255° West 67 77 4,400 -146 Descending FAA TRACON SMA TRACON (SMA)
Wed 09:06:30 PM 38.8933 -89.5997 256° West 78 90 4,400  Level FAA TRACON SMA TRACON (SMA)
Wed 09:06:49 PM 38.8917 -89.6081 277° West 80 92 4,400  Level FAA TRACON SMA TRACON (SMA)
Wed 09:07:10 PM 38.8925 -89.6172 279° West 82 94 4,400  Level FAA TRACON SMA TRACON (SMA)
Wed 09:07:30 PM 38.8939 -89.6286 276° West 83 96 4,400  Level FAA TRACON SMA TRACON (SMA)
Wed 09:07:49 PM 38.8947 -89.6381 277° West 85 98 4,400  Level FAA TRACON SMA TRACON (SMA)
Wed 09:08:10 PM 38.8956 -89.6467 275° West 84 97 4,400  Level FAA TRACON SMA TRACON (SMA)
Wed 09:08:30 PM 38.8964 -89.6583 283° West 85 98 4,400  Level FAA TRACON SMA TRACON (SMA)
Wed 09:08:49 PM 38.8981 -89.6675 281° West 87 100 4,400  Level FAA TRACON SMA TRACON (SMA)
Wed 09:09:10 PM 38.8994 -89.6764 286° West 84 97 4,400  Level FAA TRACON SMA TRACON (SMA)
Wed 09:09:30 PM 38.9019 -89.6878 276° West 85 98 4,400 -150 Level FAA TRACON SMA TRACON (SMA)
Wed 09:09:50 PM 38.9028 -89.6972 275° West 87 100 4,300  Descending FAA TRACON SMA TRACON (SMA)
Wed 09:10:10 PM 38.9033 -89.7061 274° West 85 98 4,400 150 Climbing FAA TRACON SMA TRACON (SMA)
Wed 09:10:30 PM 38.9039 -89.7172 265° West 81 93 4,400  Level FAA TRACON SMA TRACON (SMA)
Wed 09:10:50 PM 38.9033 -89.7256 265° West 77 89 4,400  Level FAA TRACON SMA TRACON (SMA)
Wed 09:11:09 PM 38.9028 -89.7342 268° West 78 90 4,400  Level FAA TRACON SMA TRACON (SMA)
Wed 09:11:30 PM 38.9025 -89.7450 263° West 80 92 4,400  Level FAA TRACON SMA TRACON (SMA)
Wed 09:11:50 PM 38.9017 -89.7533 258° West 77 89 4,400  Level FAA TRACON SMA TRACON (SMA)
Wed 09:12:09 PM 38.9003 -89.7619 243° Southwest 78 90 4,400  Level FAA TRACON SMA TRACON (SMA)
Wed 09:12:30 PM 38.8969 -89.7703 245° Southwest 71 82 4,400  Level FAA TRACON SMA TRACON (SMA)
Wed 09:12:50 PM 38.8944 -89.7772 245° Southwest 70 81 4,400  Level FAA TRACON SMA TRACON (SMA)
Wed 09:13:09 PM 38.8917 -89.7847 253° West 72 83 4,400  Level FAA TRACON SMA TRACON (SMA)
Wed 09:13:30 PM 38.8894 -89.7942 248° West 74 85 4,400  Level FAA TRACON SMA TRACON (SMA)
Wed 09:13:50 PM 38.8872 -89.8014 265° West 72 83 4,400  Level FAA TRACON SMA TRACON (SMA)
Wed 09:14:10 PM 38.8867 -89.8097 258° West 74 85 4,400  Level FAA TRACON SMA TRACON (SMA)
Wed 09:14:30 PM 38.8850 -89.8200 263° West 77 89 4,400  Level FAA TRACON SMA TRACON (SMA)
Wed 09:14:50 PM 38.8842 -89.8283 263° West 78 90 4,400  Level FAA TRACON SMA TRACON (SMA)
Wed 09:15:10 PM 38.8833 -89.8367 251° West 76 87 4,400  Level FAA TRACON SMA TRACON (SMA)
Wed 09:15:30 PM 38.8806 -89.8469 256° West 77 89 4,400 -150 Level FAA TRACON SMA TRACON (SMA)
Wed 09:15:50 PM 38.8789 -89.8553 233° Southwest 78 90 4,300 -150 Descending FAA TRACON SMA TRACON (SMA)
Wed 09:16:10 PM 38.8750 -89.8619 237° Southwest 78 90 4,300  Level FAA TRACON SMA TRACON (SMA)
Wed 09:16:29 PM 38.8708 -89.8703 235° Southwest 76 87 4,300 150 Level FAA TRACON SMA TRACON (SMA)
Wed 09:16:50 PM 38.8672 -89.8769 229° Southwest 72 83 4,400 146 Climbing FAA TRACON SMA TRACON (SMA)
Wed 09:17:10 PM 38.8631 -89.8831 244° Southwest 72 83 4,400  Level FAA TRACON SMA TRACON (SMA)
Wed 09:17:30 PM 38.8597 -89.8917 235° Southwest 72 83 4,400  Level FAA TRACON SMA TRACON (SMA)
Wed 09:17:50 PM 38.8561 -89.8983 238° Southwest 73 84 4,400  Level FAA TRACON SMA TRACON (SMA)
Wed 09:18:10 PM 38.8528 -89.9053 240° Southwest 76 87 4,400 -150 Level FAA TRACON SMA TRACON (SMA)
Wed 09:18:30 PM 38.8489 -89.9139 238° Southwest 75 86 4,300 -150 Descending FAA TRACON SMA TRACON (SMA)
Wed 09:18:50 PM 38.8456 -89.9208 233° Southwest 78 90 4,300  Level FAA TRACON SMA TRACON (SMA)
Wed 09:19:10 PM 38.8417 -89.9275 263° West 74 85 4,300  Level FAA TRACON SMA TRACON (SMA)
Wed 09:19:30 PM 38.8406 -89.9386 282° West 83 96 4,300  Level FAA TRACON SMA TRACON (SMA)
Wed 09:19:50 PM 38.8419 -89.9469 279° West 81 93 4,300  Level FAA TRACON SMA TRACON (SMA)
Wed 09:20:10 PM 38.8431 -89.9561 284° West 84 97 4,300  Level FAA TRACON SMA TRACON (SMA)
Wed 09:20:30 PM 38.8453 -89.9675 284° West 83 96 4,300  Level FAA TRACON SMA TRACON (SMA)
Wed 09:21:10 PM 38.8486 -89.9847 282° West 82 94 4,300  Level FAA TRACON SMA TRACON (SMA)
Wed 09:21:30 PM 38.8506 -89.9964 278° West 84 97 4,300  Level FAA TRACON SMA TRACON (SMA)
Wed 09:21:50 PM 38.8514 -90.0042 282° West 78 90 4,300 150 Level FAA TRACON SMA TRACON (SMA)
Wed 09:22:10 PM 38.8528 -90.0128 279° West 79 91 4,400 150 Climbing FAA TRACON SMA TRACON (SMA)
Wed 09:22:30 PM 38.8542 -90.0236 277° West 79 91 4,400  Level FAA TRACON SMA TRACON (SMA)
Wed 09:22:50 PM 38.8550 -90.0319 280° West 78 90 4,400  Level FAA TRACON SMA TRACON (SMA)
Wed 09:23:11 PM 38.8564 -90.0422 279° West 79 91 4,400  Level FAA TRACON SMA TRACON (SMA)
Wed 09:23:31 PM 38.8575 -90.0514 277° West 81 93 4,400  Level FAA TRACON SMA TRACON (SMA)
Wed 09:23:51 PM 38.8583 -90.0600 255° West 80 92 4,400  Level FAA TRACON SMA TRACON (SMA)
Wed 09:24:11 PM 38.8567 -90.0678 254° West 77 89 4,400  Level FAA TRACON SMA TRACON (SMA)
Wed 09:24:31 PM 38.8544 -90.0778 253° West 75 86 4,400  Level FAA TRACON SMA TRACON (SMA)
Wed 09:24:51 PM 38.8525 -90.0858 246° West 76 87 4,400  Level FAA TRACON SMA TRACON (SMA)
Wed 09:25:11 PM 38.8500 -90.0931 242° Southwest 72 83 4,400  Level FAA TRACON SMA TRACON (SMA)
Wed 09:25:34 PM 38.8464 -90.1017 237° Southwest 71 82 4,400  Level FAA TRACON SMA TRACON (SMA)
Wed 09:25:54 PM 38.8425 -90.1094 237° Southwest 70 81 4,400  Level FAA TRACON SMA TRACON (SMA)
Wed 09:26:11 PM 38.8400 -90.1144 238° Southwest 70 81 4,400  Level FAA TRACON SMA TRACON (SMA)
Wed 09:26:30 PM 38.8358 -90.1231 238° Southwest 73 84 4,400  Level FAA TRACON SMA TRACON (SMA)
Wed 09:26:50 PM 38.8328 -90.1294 240° Southwest 72 83 4,400  Level FAA TRACON SMA TRACON (SMA)
Wed 09:27:10 PM 38.8297 -90.1361 242° Southwest 71 82 4,400 -146 Level FAA TRACON SMA TRACON (SMA)
Wed 09:27:31 PM 38.8261 -90.1450 235° Southwest 74 85 4,300 -150 Descending FAA TRACON SMA TRACON (SMA)
Wed 09:27:50 PM 38.8225 -90.1517 245° Southwest 74 85 4,300  Level FAA TRACON SMA TRACON (SMA)
Wed 09:28:10 PM 38.8200 -90.1586 240° Southwest 72 83 4,300  Level FAA TRACON SMA TRACON (SMA)
Wed 09:28:30 PM 38.8161 -90.1672 241° Southwest 72 83 4,300  Level FAA TRACON SMA TRACON (SMA)
Wed 09:28:50 PM 38.8128 -90.1750 248° West 78 90 4,300 -150 Level FAA TRACON SMA TRACON (SMA)
Wed 09:29:10 PM 38.8103 -90.1828 245° Southwest 79 91 4,200 -450 Descending FAA TRACON SMA TRACON (SMA)
Wed 09:29:30 PM 38.8067 -90.1925 249° West 79 91 4,000 -300 Descending FAA TRACON SMA TRACON (SMA)
Wed 09:29:50 PM 38.8042 -90.2008 238° Southwest 80 92 4,000 -293 Level FAA TRACON SMA TRACON (SMA)
Wed 09:30:11 PM 38.8008 -90.2078 240° Southwest 76 87 3,800 -300 Descending FAA TRACON SMA TRACON (SMA)
Wed 09:30:30 PM 38.7967 -90.2169 242° Southwest 76 87 3,800 -154 Level FAA TRACON SMA TRACON (SMA)
Wed 09:30:50 PM 38.7936 -90.2244 246° West 78 90 3,700 -300 Descending FAA TRACON SMA TRACON (SMA)
Wed 09:31:10 PM 38.7911 -90.2317 246° West 75 86 3,600 -300 Descending FAA TRACON SMA TRACON (SMA)
Wed 09:31:30 PM 38.7878 -90.2414 248° West 76 87 3,500 -146 Descending FAA TRACON SMA TRACON (SMA)
Wed 09:31:51 PM 38.7853 -90.2492 250° West 76 87 3,500  Level FAA TRACON SMA TRACON (SMA)
Wed 09:32:10 PM 38.7831 -90.2569 251° West 75 86 3,500 -154 Level FAA TRACON SMA TRACON (SMA)
Wed 09:32:30 PM 38.7806 -90.2664 249° West 75 86 3,400 -150 Descending FAA TRACON SMA TRACON (SMA)
Wed 09:32:50 PM 38.7783 -90.2739 237° Southwest 74 85 3,400  Level FAA TRACON SMA TRACON (SMA)
Wed 09:33:10 PM 38.7750 -90.2806 230° Southwest 72 83 3,400  Level FAA TRACON SMA TRACON (SMA)
Wed 09:33:30 PM 38.7703 -90.2878 226° Southwest 68 78 3,400  Level FAA TRACON SMA TRACON (SMA)
Wed 09:33:50 PM 38.7667 -90.2925 227° Southwest 64 74 3,400 150 Level FAA TRACON SMA TRACON (SMA)
Wed 09:34:10 PM 38.7631 -90.2975 226° Southwest 62 71 3,500 150 Climbing FAA TRACON SMA TRACON (SMA)
Wed 09:34:30 PM 38.7581 -90.3042 229° Southwest 63 72 3,500  Level FAA TRACON SMA TRACON (SMA)
Wed 09:34:50 PM 38.7544 -90.3094 231° Southwest 64 74 3,500  Level FAA TRACON SMA TRACON (SMA)
Wed 09:35:10 PM 38.7511 -90.3147 232° Southwest 65 75 3,500  Level FAA TRACON SMA TRACON (SMA)
Wed 09:35:30 PM 38.7467 -90.3219 232° Southwest 64 74 3,500  Level FAA TRACON SMA TRACON (SMA)
Wed 09:35:50 PM 38.7442 -90.3261 360° North 65 75 3,500  Level FAA TRACON SMA TRACON (SMA)
Wed 09:36:10 PM 38.7442 -90.3261 253° West 65 75 3,500 -200 Level FAA TRACON SMA TRACON (SMA)
Wed 09:36:50 PM 38.7356 -90.3617 268° West 74 85 3,300 -300 Descending FAA TRACON SMA TRACON (SMA)
Wed 09:37:10 PM 38.7353 -90.3700 255° West 77 89 3,200 -450 Descending FAA TRACON SMA TRACON (SMA)
Wed 09:37:30 PM 38.7336 -90.3778 268° West 76 87 3,000 -1,050 Descending FAA TRACON SMA TRACON (SMA)
Wed 09:37:50 PM 38.7333 -90.3883 270° West 75 86 2,500 -1,200 Descending FAA TRACON SMA TRACON (SMA)
Wed 09:38:10 PM 38.7333 -90.3967 264° West 76 87 2,200 -750 Descending FAA TRACON SMA TRACON (SMA)
Wed 09:38:30 PM 38.7328 -90.4039 254° West 70 81 2,000 -1,050 Descending FAA TRACON SMA TRACON (SMA)
Wed 09:38:50 PM 38.7308 -90.4125 230° Southwest 67 77 1,500 -1,050 Descending FAA TRACON SMA TRACON (SMA)
Wed 09:39:10 PM 38.7278 -90.4172 242° Southwest 61 70 1,300 -750 Descending FAA TRACON SMA TRACON (SMA)
Wed 09:39:30 PM 38.7253 -90.4233 234° Southwest 61 70 1,000 -1,050 Descending FAA TRACON SMA TRACON (SMA)
Wed 09:39:50 PM 38.7214 -90.4303 360° North 63 72 600 -558 Descending FAA TRACON SMA TRACON (SMA)
Wed 09:40:13 PM 38.7214 -90.4303 360° North 63 72 600  Level FAA TRACON SMA TRACON (SMA)

Login

Don't have an account? Register now (free) for customized features, flight alerts, and more!